sensor_id;sensor_type;location;lat;lon;timestamp;P1;durP1;ratioP1;P2;durP2;ratioP2
21243;SDS011;10780;50.942;4.028;2023-04-01T00:01:58;5.88;;;2.70;;
21243;SDS011;10780;50.942;4.028;2023-04-01T00:04:24;3.38;;;1.95;;
21243;SDS011;10780;50.942;4.028;2023-04-01T00:06:50;6.32;;;2.40;;
21243;SDS011;10780;50.942;4.028;2023-04-01T00:09:16;3.55;;;2.28;;
21243;SDS011;10780;50.942;4.028;2023-04-01T00:11:42;5.55;;;2.28;;
21243;SDS011;10780;50.942;4.028;2023-04-01T00:14:10;5.22;;;2.38;;
21243;SDS011;10780;50.942;4.028;2023-04-01T00:16:36;4.95;;;2.50;;
21243;SDS011;10780;50.942;4.028;2023-04-01T00:19:02;6.32;;;2.33;;
21243;SDS011;10780;50.942;4.028;2023-04-01T00:21:28;6.18;;;2.78;;
21243;SDS011;10780;50.942;4.028;2023-04-01T00:23:54;11.07;;;2.78;;
21243;SDS011;10780;50.942;4.028;2023-04-01T00:26:21;6.57;;;3.22;;
21243;SDS011;10780;50.942;4.028;2023-04-01T00:28:47;8.63;;;3.40;;
21243;SDS011;10780;50.942;4.028;2023-04-01T00:31:13;4.18;;;2.75;;
21243;SDS011;10780;50.942;4.028;2023-04-01T00:33:39;6.07;;;3.13;;
21243;SDS011;10780;50.942;4.028;2023-04-01T00:36:19;8.98;;;3.60;;
21243;SDS011;10780;50.942;4.028;2023-04-01T00:38:46;5.78;;;3.25;;
21243;SDS011;10780;50.942;4.028;2023-04-01T00:41:12;7.75;;;3.80;;
21243;SDS011;10780;50.942;4.028;2023-04-01T00:43:40;8.05;;;4.03;;
21243;SDS011;10780;50.942;4.028;2023-04-01T00:46:06;7.38;;;4.15;;
21243;SDS011;10780;50.942;4.028;2023-04-01T00:48:34;7.72;;;4.55;;
21243;SDS011;10780;50.942;4.028;2023-04-01T00:51:07;11.32;;;4.78;;
21243;SDS011;10780;50.942;4.028;2023-04-01T00:53:38;8.70;;;4.85;;
21243;SDS011;10780;50.942;4.028;2023-04-01T00:58:40;9.82;;;4.95;;
21243;SDS011;10780;50.942;4.028;2023-04-01T01:01:09;9.40;;;4.57;;
21243;SDS011;10780;50.942;4.028;2023-04-01T01:03:35;10.65;;;5.07;;
21243;SDS011;10780;50.942;4.028;2023-04-01T01:06:11;9.13;;;4.45;;
21243;SDS011;10780;50.942;4.028;2023-04-01T01:19:57;7.97;;;5.45;;
21243;SDS011;10780;50.942;4.028;2023-04-01T01:31:02;9.68;;;4.97;;
21243;SDS011;10780;50.942;4.028;2023-04-01T01:36:49;11.38;;;4.75;;
21243;SDS011;10780;50.942;4.028;2023-04-01T01:39:21;10.45;;;4.57;;
21243;SDS011;10780;50.942;4.028;2023-04-01T01:41:54;13.77;;;4.53;;
21243;SDS011;10780;50.942;4.028;2023-04-01T01:44:22;13.13;;;5.15;;
21243;SDS011;10780;50.942;4.028;2023-04-01T01:46:51;8.82;;;4.20;;
21243;SDS011;10780;50.942;4.028;2023-04-01T01:49:17;11.13;;;4.28;;
21243;SDS011;10780;50.942;4.028;2023-04-01T01:51:44;11.15;;;4.13;;
21243;SDS011;10780;50.942;4.028;2023-04-01T01:54:16;10.70;;;4.53;;
21243;SDS011;10780;50.942;4.028;2023-04-01T01:56:44;11.25;;;5.05;;
21243;SDS011;10780;50.942;4.028;2023-04-01T01:59:13;8.52;;;4.28;;
21243;SDS011;10780;50.942;4.028;2023-04-01T02:01:42;12.25;;;4.45;;
21243;SDS011;10780;50.942;4.028;2023-04-01T02:04:10;7.78;;;4.43;;
21243;SDS011;10780;50.942;4.028;2023-04-01T02:06:38;14.15;;;4.50;;
21243;SDS011;10780;50.942;4.028;2023-04-01T02:09:08;7.57;;;3.60;;
21243;SDS011;10780;50.942;4.028;2023-04-01T02:14:06;9.18;;;3.80;;
21243;SDS011;10780;50.942;4.028;2023-04-01T02:16:43;11.07;;;3.92;;
21243;SDS011;10780;50.942;4.028;2023-04-01T02:19:22;7.43;;;3.42;;
21243;SDS011;10780;50.942;4.028;2023-04-01T02:21:57;9.05;;;3.38;;
21243;SDS011;10780;50.942;4.028;2023-04-01T02:24:25;7.88;;;3.70;;
21243;SDS011;10780;50.942;4.028;2023-04-01T02:26:53;8.38;;;3.92;;
21243;SDS011;10780;50.942;4.028;2023-04-01T02:29:19;10.10;;;3.55;;
21243;SDS011;10780;50.942;4.028;2023-04-01T02:31:47;9.30;;;4.03;;
21243;SDS011;10780;50.942;4.028;2023-04-01T02:34:14;9.23;;;4.13;;
21243;SDS011;10780;50.942;4.028;2023-04-01T02:36:40;13.02;;;4.38;;
21243;SDS011;10780;50.942;4.028;2023-04-01T02:39:06;12.45;;;5.07;;
21243;SDS011;10780;50.942;4.028;2023-04-01T02:41:38;10.93;;;4.85;;
21243;SDS011;10780;50.942;4.028;2023-04-01T02:44:05;11.75;;;5.28;;
21243;SDS011;10780;50.942;4.028;2023-04-01T02:46:32;11.73;;;4.90;;
21243;SDS011;10780;50.942;4.028;2023-04-01T02:48:57;10.57;;;5.10;;
21243;SDS011;10780;50.942;4.028;2023-04-01T02:51:23;11.63;;;5.40;;
21243;SDS011;10780;50.942;4.028;2023-04-01T02:53:50;12.02;;;5.72;;
21243;SDS011;10780;50.942;4.028;2023-04-01T02:56:15;12.05;;;5.80;;
21243;SDS011;10780;50.942;4.028;2023-04-01T02:58:41;12.20;;;5.90;;
21243;SDS011;10780;50.942;4.028;2023-04-01T03:01:07;11.50;;;6.07;;
21243;SDS011;10780;50.942;4.028;2023-04-01T03:03:33;12.73;;;6.32;;
21243;SDS011;10780;50.942;4.028;2023-04-01T03:06:04;12.48;;;6.53;;
21243;SDS011;10780;50.942;4.028;2023-04-01T03:08:37;23.73;;;6.60;;
21243;SDS011;10780;50.942;4.028;2023-04-01T03:11:03;16.08;;;6.80;;
21243;SDS011;10780;50.942;4.028;2023-04-01T03:13:29;14.55;;;6.40;;
21243;SDS011;10780;50.942;4.028;2023-04-01T03:15:54;17.40;;;6.88;;
21243;SDS011;10780;50.942;4.028;2023-04-01T03:18:20;16.10;;;6.78;;
21243;SDS011;10780;50.942;4.028;2023-04-01T03:20:46;14.30;;;6.38;;
21243;SDS011;10780;50.942;4.028;2023-04-01T03:23:12;21.85;;;6.75;;
21243;SDS011;10780;50.942;4.028;2023-04-01T03:25:38;16.73;;;7.32;;
21243;SDS011;10780;50.942;4.028;2023-04-01T03:28:04;18.50;;;6.90;;
21243;SDS011;10780;50.942;4.028;2023-04-01T03:30:29;14.85;;;6.05;;
21243;SDS011;10780;50.942;4.028;2023-04-01T03:32:56;13.15;;;5.63;;
21243;SDS011;10780;50.942;4.028;2023-04-01T03:35:23;15.32;;;5.97;;
21243;SDS011;10780;50.942;4.028;2023-04-01T03:37:50;18.13;;;5.97;;
21243;SDS011;10780;50.942;4.028;2023-04-01T03:40:16;14.50;;;5.35;;
21243;SDS011;10780;50.942;4.028;2023-04-01T03:42:42;14.50;;;6.18;;
21243;SDS011;10780;50.942;4.028;2023-04-01T03:45:08;11.07;;;5.53;;
21243;SDS011;10780;50.942;4.028;2023-04-01T03:47:34;15.00;;;5.70;;
21243;SDS011;10780;50.942;4.028;2023-04-01T03:50:00;11.27;;;5.55;;
21243;SDS011;10780;50.942;4.028;2023-04-01T03:52:26;11.70;;;5.90;;
21243;SDS011;10780;50.942;4.028;2023-04-01T03:54:52;11.77;;;5.93;;
21243;SDS011;10780;50.942;4.028;2023-04-01T03:57:17;12.00;;;5.47;;
21243;SDS011;10780;50.942;4.028;2023-04-01T03:59:43;10.82;;;5.53;;
21243;SDS011;10780;50.942;4.028;2023-04-01T04:02:08;10.90;;;5.20;;
21243;SDS011;10780;50.942;4.028;2023-04-01T04:04:34;8.75;;;4.93;;
21243;SDS011;10780;50.942;4.028;2023-04-01T04:07:00;8.20;;;4.50;;
21243;SDS011;10780;50.942;4.028;2023-04-01T04:09:26;12.32;;;5.60;;
21243;SDS011;10780;50.942;4.028;2023-04-01T04:11:51;10.60;;;4.53;;
21243;SDS011;10780;50.942;4.028;2023-04-01T04:14:17;9.32;;;3.90;;
21243;SDS011;10780;50.942;4.028;2023-04-01T04:16:43;8.63;;;4.00;;
21243;SDS011;10780;50.942;4.028;2023-04-01T04:19:09;9.63;;;4.53;;
21243;SDS011;10780;50.942;4.028;2023-04-01T04:21:34;7.15;;;3.63;;
21243;SDS011;10780;50.942;4.028;2023-04-01T04:24:00;5.07;;;3.65;;
21243;SDS011;10780;50.942;4.028;2023-04-01T04:26:26;6.18;;;3.95;;
21243;SDS011;10780;50.942;4.028;2023-04-01T04:28:53;6.25;;;4.05;;
21243;SDS011;10780;50.942;4.028;2023-04-01T04:31:23;4.35;;;3.47;;
21243;SDS011;10780;50.942;4.028;2023-04-01T04:33:50;4.88;;;3.40;;
21243;SDS011;10780;50.942;4.028;2023-04-01T04:36:16;7.63;;;3.80;;
21243;SDS011;10780;50.942;4.028;2023-04-01T04:38:43;4.68;;;3.35;;
21243;SDS011;10780;50.942;4.028;2023-04-01T04:41:12;5.13;;;3.38;;
21243;SDS011;10780;50.942;4.028;2023-04-01T04:43:47;4.70;;;2.97;;
21243;SDS011;10780;50.942;4.028;2023-04-01T04:46:17;6.90;;;2.90;;
21243;SDS011;10780;50.942;4.028;2023-04-01T04:48:44;5.93;;;3.05;;
21243;SDS011;10780;50.942;4.028;2023-04-01T04:51:12;4.45;;;2.85;;
21243;SDS011;10780;50.942;4.028;2023-04-01T04:53:39;5.13;;;3.13;;
21243;SDS011;10780;50.942;4.028;2023-04-01T04:56:05;5.43;;;3.42;;
21243;SDS011;10780;50.942;4.028;2023-04-01T04:58:31;5.97;;;3.58;;
21243;SDS011;10780;50.942;4.028;2023-04-01T05:00:56;7.45;;;4.03;;
21243;SDS011;10780;50.942;4.028;2023-04-01T05:03:22;8.13;;;4.88;;
21243;SDS011;10780;50.942;4.028;2023-04-01T05:05:49;9.75;;;5.05;;
21243;SDS011;10780;50.942;4.028;2023-04-01T05:08:18;10.82;;;5.15;;
21243;SDS011;10780;50.942;4.028;2023-04-01T05:10:45;10.00;;;5.13;;
21243;SDS011;10780;50.942;4.028;2023-04-01T05:13:11;8.88;;;5.40;;
21243;SDS011;10780;50.942;4.028;2023-04-01T05:15:37;11.50;;;6.68;;
21243;SDS011;10780;50.942;4.028;2023-04-01T05:18:02;12.07;;;5.85;;
21243;SDS011;10780;50.942;4.028;2023-04-01T05:20:28;12.45;;;6.82;;
21243;SDS011;10780;50.942;4.028;2023-04-01T05:22:57;15.43;;;7.32;;
21243;SDS011;10780;50.942;4.028;2023-04-01T05:25:24;13.00;;;6.30;;
21243;SDS011;10780;50.942;4.028;2023-04-01T05:27:49;13.48;;;6.95;;
21243;SDS011;10780;50.942;4.028;2023-04-01T05:30:15;14.07;;;5.82;;
21243;SDS011;10780;50.942;4.028;2023-04-01T05:32:41;9.45;;;5.50;;
21243;SDS011;10780;50.942;4.028;2023-04-01T05:35:08;8.52;;;5.43;;
21243;SDS011;10780;50.942;4.028;2023-04-01T05:37:34;13.95;;;6.63;;
21243;SDS011;10780;50.942;4.028;2023-04-01T05:40:00;13.43;;;7.57;;
21243;SDS011;10780;50.942;4.028;2023-04-01T05:42:26;14.50;;;7.13;;
21243;SDS011;10780;50.942;4.028;2023-04-01T05:44:52;10.63;;;6.65;;
21243;SDS011;10780;50.942;4.028;2023-04-01T05:47:17;14.07;;;7.00;;
21243;SDS011;10780;50.942;4.028;2023-04-01T05:49:43;12.65;;;7.07;;
21243;SDS011;10780;50.942;4.028;2023-04-01T05:52:09;13.48;;;7.53;;
21243;SDS011;10780;50.942;4.028;2023-04-01T05:54:35;15.15;;;7.75;;
21243;SDS011;10780;50.942;4.028;2023-04-01T05:57:00;15.85;;;7.97;;
21243;SDS011;10780;50.942;4.028;2023-04-01T05:59:26;18.88;;;8.48;;
21243;SDS011;10780;50.942;4.028;2023-04-01T06:01:52;14.20;;;8.55;;
21243;SDS011;10780;50.942;4.028;2023-04-01T06:04:18;13.27;;;7.82;;
21243;SDS011;10780;50.942;4.028;2023-04-01T06:06:44;15.73;;;8.70;;
21243;SDS011;10780;50.942;4.028;2023-04-01T06:09:21;16.08;;;8.82;;
21243;SDS011;10780;50.942;4.028;2023-04-01T06:26:29;14.40;;;7.20;;
21243;SDS011;10780;50.942;4.028;2023-04-01T06:29:08;14.25;;;8.23;;
21243;SDS011;10780;50.942;4.028;2023-04-01T06:37:43;12.07;;;7.20;;
21243;SDS011;10780;50.942;4.028;2023-04-01T06:40:17;13.85;;;7.95;;
21243;SDS011;10780;50.942;4.028;2023-04-01T06:54:24;6.03;;;3.40;;
21243;SDS011;10780;50.942;4.028;2023-04-01T06:59:59;5.30;;;3.20;;
21243;SDS011;10780;50.942;4.028;2023-04-01T07:05:08;4.25;;;2.80;;
21243;SDS011;10780;50.942;4.028;2023-04-01T07:07:47;3.63;;;2.10;;
21243;SDS011;10780;50.942;4.028;2023-04-01T07:13:10;3.92;;;1.50;;
21243;SDS011;10780;50.942;4.028;2023-04-01T07:15:51;2.30;;;1.55;;
21243;SDS011;10780;50.942;4.028;2023-04-01T07:18:34;1.48;;;1.30;;
21243;SDS011;10780;50.942;4.028;2023-04-01T07:21:09;3.70;;;1.67;;
21243;SDS011;10780;50.942;4.028;2023-04-01T07:23:41;2.90;;;1.88;;
21243;SDS011;10780;50.942;4.028;2023-04-01T07:26:19;2.33;;;1.73;;
21243;SDS011;10780;50.942;4.028;2023-04-01T07:28:48;3.53;;;2.67;;
21243;SDS011;10780;50.942;4.028;2023-04-01T07:31:25;4.72;;;3.00;;
21243;SDS011;10780;50.942;4.028;2023-04-01T07:37:11;3.85;;;2.20;;
21243;SDS011;10780;50.942;4.028;2023-04-01T07:45:36;1.95;;;1.75;;
21243;SDS011;10780;50.942;4.028;2023-04-01T07:51:01;2.50;;;1.88;;
21243;SDS011;10780;50.942;4.028;2023-04-01T07:54:06;6.70;;;2.35;;
21243;SDS011;10780;50.942;4.028;2023-04-01T08:04:21;3.53;;;2.17;;
21243;SDS011;10780;50.942;4.028;2023-04-01T08:21:21;3.67;;;2.45;;
21243;SDS011;10780;50.942;4.028;2023-04-01T08:23:52;3.28;;;2.17;;
21243;SDS011;10780;50.942;4.028;2023-04-01T08:34:08;3.30;;;2.40;;
21243;SDS011;10780;50.942;4.028;2023-04-01T08:36:43;2.33;;;2.00;;
21243;SDS011;10780;50.942;4.028;2023-04-01T08:39:20;3.47;;;2.58;;
21243;SDS011;10780;50.942;4.028;2023-04-01T08:45:15;3.45;;;2.63;;
21243;SDS011;10780;50.942;4.028;2023-04-01T08:48:27;5.20;;;2.70;;
21243;SDS011;10780;50.942;4.028;2023-04-01T08:50:54;4.57;;;2.30;;
21243;SDS011;10780;50.942;4.028;2023-04-01T08:53:57;4.07;;;2.90;;
21243;SDS011;10780;50.942;4.028;2023-04-01T08:59:36;4.25;;;3.22;;
21243;SDS011;10780;50.942;4.028;2023-04-01T09:08:24;5.38;;;2.97;;
21243;SDS011;10780;50.942;4.028;2023-04-01T09:26:44;6.18;;;3.33;;
21243;SDS011;10780;50.942;4.028;2023-04-01T09:37:53;5.00;;;3.10;;
21243;SDS011;10780;50.942;4.028;2023-04-01T10:01:42;4.65;;;2.47;;
21243;SDS011;10780;50.942;4.028;2023-04-01T10:04:35;3.25;;;2.17;;
21243;SDS011;10780;50.942;4.028;2023-04-01T10:23:10;2.08;;;1.50;;
21243;SDS011;10780;50.942;4.028;2023-04-01T10:25:53;4.38;;;1.60;;
21243;SDS011;10780;50.942;4.028;2023-04-01T10:51:59;2.42;;;1.83;;
21243;SDS011;10780;50.942;4.028;2023-04-01T11:03:46;2.17;;;1.98;;
21243;SDS011;10780;50.942;4.028;2023-04-01T11:09:29;2.90;;;1.80;;
21243;SDS011;10780;50.942;4.028;2023-04-01T12:01:04;3.95;;;2.05;;
21243;SDS011;10780;50.942;4.028;2023-04-01T13:28:30;5.53;;;2.75;;
21243;SDS011;10780;50.942;4.028;2023-04-01T13:31:13;4.05;;;2.53;;
21243;SDS011;10780;50.942;4.028;2023-04-01T13:33:43;3.83;;;2.83;;
21243;SDS011;10780;50.942;4.028;2023-04-01T13:44:51;2.60;;;2.25;;
21243;SDS011;10780;50.942;4.028;2023-04-01T14:01:42;3.70;;;1.90;;
21243;SDS011;10780;50.942;4.028;2023-04-01T14:04:34;2.42;;;1.83;;
21243;SDS011;10780;50.942;4.028;2023-04-01T14:22:19;1.65;;;1.55;;
21243;SDS011;10780;50.942;4.028;2023-04-01T14:30:26;3.10;;;1.95;;
21243;SDS011;10780;50.942;4.028;2023-04-01T14:50:03;1.65;;;1.55;;
21243;SDS011;10780;50.942;4.028;2023-04-01T14:52:34;2.45;;;1.55;;
21243;SDS011;10780;50.942;4.028;2023-04-01T14:58:09;4.07;;;1.80;;
21243;SDS011;10780;50.942;4.028;2023-04-01T15:11:37;1.77;;;1.60;;
21243;SDS011;10780;50.942;4.028;2023-04-01T15:22:08;1.52;;;1.40;;
21243;SDS011;10780;50.942;4.028;2023-04-01T15:25:05;1.83;;;1.20;;
21243;SDS011;10780;50.942;4.028;2023-04-01T15:27:55;3.40;;;1.45;;
21243;SDS011;10780;50.942;4.028;2023-04-01T15:33:34;1.52;;;1.33;;
21243;SDS011;10780;50.942;4.028;2023-04-01T15:36:23;2.45;;;1.38;;
21243;SDS011;10780;50.942;4.028;2023-04-01T15:46:56;2.03;;;1.40;;
21243;SDS011;10780;50.942;4.028;2023-04-01T16:03:18;2.75;;;1.70;;
21243;SDS011;10780;50.942;4.028;2023-04-01T16:08:40;2.70;;;1.90;;
21243;SDS011;10780;50.942;4.028;2023-04-01T16:17:09;3.83;;;2.20;;
21243;SDS011;10780;50.942;4.028;2023-04-01T16:19:59;2.20;;;2.00;;
21243;SDS011;10780;50.942;4.028;2023-04-01T16:22:37;5.20;;;2.30;;
21243;SDS011;10780;50.942;4.028;2023-04-01T16:30:45;2.67;;;2.10;;
21243;SDS011;10780;50.942;4.028;2023-04-01T16:33:52;3.90;;;2.08;;
21243;SDS011;10780;50.942;4.028;2023-04-01T16:38:50;2.92;;;2.55;;
21243;SDS011;10780;50.942;4.028;2023-04-01T16:41:24;2.60;;;2.40;;
21243;SDS011;10780;50.942;4.028;2023-04-01T16:43:59;3.50;;;2.42;;
21243;SDS011;10780;50.942;4.028;2023-04-01T16:46:46;4.60;;;2.40;;
21243;SDS011;10780;50.942;4.028;2023-04-01T16:54:35;2.78;;;2.50;;
21243;SDS011;10780;50.942;4.028;2023-04-01T16:57:18;3.22;;;2.80;;
21243;SDS011;10780;50.942;4.028;2023-04-01T17:02:20;4.57;;;3.33;;
21243;SDS011;10780;50.942;4.028;2023-04-01T17:04:58;4.15;;;3.58;;
21243;SDS011;10780;50.942;4.028;2023-04-01T17:07:48;3.08;;;2.85;;
21243;SDS011;10780;50.942;4.028;2023-04-01T17:30:02;5.82;;;4.20;;
21243;SDS011;10780;50.942;4.028;2023-04-01T17:33:03;4.70;;;4.00;;
21243;SDS011;10780;50.942;4.028;2023-04-01T17:35:58;7.00;;;4.80;;
21243;SDS011;10780;50.942;4.028;2023-04-01T17:46:24;6.30;;;3.88;;
21243;SDS011;10780;50.942;4.028;2023-04-01T17:49:13;6.47;;;4.32;;
21243;SDS011;10780;50.942;4.028;2023-04-01T17:52:09;6.88;;;4.43;;
21243;SDS011;10780;50.942;4.028;2023-04-01T18:27:41;9.32;;;5.53;;
21243;SDS011;10780;50.942;4.028;2023-04-01T18:30:15;8.98;;;5.78;;
21243;SDS011;10780;50.942;4.028;2023-04-01T18:38:12;11.20;;;6.82;;
21243;SDS011;10780;50.942;4.028;2023-04-01T18:40:47;11.55;;;6.75;;
21243;SDS011;10780;50.942;4.028;2023-04-01T18:46:03;9.40;;;6.88;;
21243;SDS011;10780;50.942;4.028;2023-04-01T18:48:51;10.38;;;6.88;;
21243;SDS011;10780;50.942;4.028;2023-04-01T18:51:40;12.00;;;8.00;;
21243;SDS011;10780;50.942;4.028;2023-04-01T18:57:01;15.68;;;8.88;;
21243;SDS011;10780;50.942;4.028;2023-04-01T18:59:34;18.00;;;9.82;;
21243;SDS011;10780;50.942;4.028;2023-04-01T19:05:19;20.98;;;12.07;;
21243;SDS011;10780;50.942;4.028;2023-04-01T19:07:53;23.48;;;12.63;;
21243;SDS011;10780;50.942;4.028;2023-04-01T19:13:46;21.95;;;12.40;;
21243;SDS011;10780;50.942;4.028;2023-04-01T19:16:49;26.92;;;14.18;;
21243;SDS011;10780;50.942;4.028;2023-04-01T19:22:19;31.08;;;14.65;;
21243;SDS011;10780;50.942;4.028;2023-04-01T19:25:02;32.20;;;14.65;;
21243;SDS011;10780;50.942;4.028;2023-04-01T19:30:27;36.35;;;16.05;;
21243;SDS011;10780;50.942;4.028;2023-04-01T19:36:25;29.45;;;14.82;;
21243;SDS011;10780;50.942;4.028;2023-04-01T19:42:03;39.00;;;15.15;;
21243;SDS011;10780;50.942;4.028;2023-04-01T19:44:41;31.17;;;15.75;;
21243;SDS011;10780;50.942;4.028;2023-04-01T19:47:24;37.50;;;17.02;;
21243;SDS011;10780;50.942;4.028;2023-04-01T19:52:53;39.85;;;16.60;;
21243;SDS011;10780;50.942;4.028;2023-04-01T19:55:44;31.65;;;16.02;;
21243;SDS011;10780;50.942;4.028;2023-04-01T20:00:44;31.17;;;15.13;;
21243;SDS011;10780;50.942;4.028;2023-04-01T20:03:16;32.22;;;15.98;;
21243;SDS011;10780;50.942;4.028;2023-04-01T20:05:49;40.38;;;16.33;;
21243;SDS011;10780;50.942;4.028;2023-04-01T20:11:27;31.10;;;14.77;;
21243;SDS011;10780;50.942;4.028;2023-04-01T20:19:43;36.50;;;16.10;;
21243;SDS011;10780;50.942;4.028;2023-04-01T20:25:01;37.10;;;17.52;;
21243;SDS011;10780;50.942;4.028;2023-04-01T20:27:54;38.95;;;18.77;;
21243;SDS011;10780;50.942;4.028;2023-04-01T20:39:10;41.05;;;19.02;;
21243;SDS011;10780;50.942;4.028;2023-04-01T20:44:41;43.25;;;18.75;;
21243;SDS011;10780;50.942;4.028;2023-04-01T20:53:04;44.67;;;20.27;;
21243;SDS011;10780;50.942;4.028;2023-04-01T21:30:21;51.83;;;25.08;;
21243;SDS011;10780;50.942;4.028;2023-04-01T21:38:59;57.92;;;26.00;;
21243;SDS011;10780;50.942;4.028;2023-04-01T21:41:34;54.55;;;25.45;;
21243;SDS011;10780;50.942;4.028;2023-04-01T21:44:41;54.40;;;24.65;;
21243;SDS011;10780;50.942;4.028;2023-04-01T22:04:35;53.97;;;24.20;;
21243;SDS011;10780;50.942;4.028;2023-04-01T22:07:33;54.47;;;26.42;;
21243;SDS011;10780;50.942;4.028;2023-04-01T22:13:03;49.25;;;23.75;;
21243;SDS011;10780;50.942;4.028;2023-04-01T22:15:46;46.00;;;22.88;;
21243;SDS011;10780;50.942;4.028;2023-04-01T22:32:26;50.97;;;24.20;;
21243;SDS011;10780;50.942;4.028;2023-04-01T22:38:13;52.05;;;21.08;;
21243;SDS011;10780;50.942;4.028;2023-04-01T22:43:29;51.33;;;25.58;;
21243;SDS011;10780;50.942;4.028;2023-04-01T22:46:51;50.35;;;23.55;;
21243;SDS011;10780;50.942;4.028;2023-04-01T23:02:13;45.42;;;22.60;;
21243;SDS011;10780;50.942;4.028;2023-04-01T23:04:43;44.22;;;22.92;;
21243;SDS011;10780;50.942;4.028;2023-04-01T23:09:45;44.65;;;23.55;;
21243;SDS011;10780;50.942;4.028;2023-04-01T23:12:13;42.20;;;21.33;;
21243;SDS011;10780;50.942;4.028;2023-04-01T23:14:47;40.58;;;21.90;;
21243;SDS011;10780;50.942;4.028;2023-04-01T23:20:02;41.45;;;22.25;;
21243;SDS011;10780;50.942;4.028;2023-04-01T23:33:19;40.53;;;22.75;;
21243;SDS011;10780;50.942;4.028;2023-04-01T23:38:36;41.90;;;22.30;;
21243;SDS011;10780;50.942;4.028;2023-04-01T23:41:06;39.83;;;21.05;;
21243;SDS011;10780;50.942;4.028;2023-04-01T23:43:36;43.80;;;24.75;;
21243;SDS011;10780;50.942;4.028;2023-04-01T23:46:05;38.85;;;21.83;;
21243;SDS011;10780;50.942;4.028;2023-04-01T23:48:36;38.35;;;22.88;;
21243;SDS011;10780;50.942;4.028;2023-04-01T23:51:04;38.25;;;22.23;;
21243;SDS011;10780;50.942;4.028;2023-04-01T23:54:01;37.63;;;21.73;;
21243;SDS011;10780;50.942;4.028;2023-04-01T23:56:39;32.53;;;19.27;;
21243;SDS011;10780;50.942;4.028;2023-04-01T23:59:42;34.28;;;18.52;;
